Time;durP1;ratioP1;P1;durP2;ratioP2;P2;SDS_P1;SDS_P2;PMS_P1;PMS_P2;Temp;Humidity;BMP_temperature;BMP_pressure;BME280_temperature;BME280_humidity;BME280_pressure;Samples;Min_cycle;Max_cycle;Signal;HPM_P1;HPM_P2
2021/06/29 00:02:16;;;;;;;8.10;4.25;;;;;;;;;;5034276;28;20032;-66
2021/06/29 00:04:41;;;;;;;7.43;4.53;;;;;;;;;;5044707;28;20032;-66
2021/06/29 00:07:06;;;;;;;6.40;4.47;;;;;;;;;;5034723;28;20033;-66
2021/06/29 00:09:31;;;;;;;7.20;4.13;;;;;;;;;;5037844;28;20029;-66
2021/06/29 00:11:57;;;;;;;5.13;3.78;;;;;;;;;;5033570;28;20043;-66
2021/06/29 00:14:23;;;;;;;6.18;3.95;;;;;;;;;;5039425;28;20025;-66
2021/06/29 00:16:48;;;;;;;6.40;4.78;;;;;;;;;;5023518;28;20023;-67
2021/06/29 00:19:13;;;;;;;6.90;4.28;;;;;;;;;;5030236;28;20077;-67
2021/06/29 00:21:38;;;;;;;7.80;4.22;;;;;;;;;;5030444;28;20010;-67
2021/06/29 00:24:04;;;;;;;7.20;4.65;;;;;;;;;;5025018;28;20433;-66
2021/06/29 00:26:29;;;;;;;5.93;4.32;;;;;;;;;;5027266;28;20013;-66
2021/06/29 00:28:54;;;;;;;5.13;4.35;;;;;;;;;;5031847;28;20420;-66
2021/06/29 00:31:20;;;;;;;5.50;4.20;;;;;;;;;;5030440;28;20420;-67
2021/06/29 00:33:45;;;;;;;6.45;4.78;;;;;;;;;;5029218;28;20024;-67
2021/06/29 00:36:14;;;;;;;4.70;4.13;;;;;;;;;;5034331;28;20384;-66
2021/06/29 00:38:40;;;;;;;7.88;4.93;;;;;;;;;;5034930;28;20022;-68
2021/06/29 00:41:05;;;;;;;7.40;4.30;;;;;;;;;;5033100;28;20745;-66
2021/06/29 00:43:30;;;;;;;5.15;4.05;;;;;;;;;;5040424;28;20282;-67
2021/06/29 00:45:55;;;;;;;4.37;3.93;;;;;;;;;;5039879;28;20286;-67
2021/06/29 00:48:20;;;;;;;6.47;4.55;;;;;;;;;;5026769;28;20663;-66
2021/06/29 00:50:45;;;;;;;6.37;4.23;;;;;;;;;;5047522;28;20022;-66
2021/06/29 00:53:11;;;;;;;7.85;4.28;;;;;;;;;;5045271;28;20286;-66
2021/06/29 00:55:37;;;;;;;10.43;5.07;;;;;;;;;;5039617;28;20021;-67
2021/06/29 00:58:05;;;;;;;4.82;4.07;;;;;;;;;;5033946;28;20036;-67
2021/06/29 01:00:30;;;;;;;5.07;4.10;;;;;;;;;;5037049;28;20500;-67
2021/06/29 01:02:55;;;;;;;5.75;3.83;;;;;;;;;;5035652;28;20476;-67
2021/06/29 01:05:21;;;;;;;5.57;4.53;;;;;;;;;;5036563;28;20159;-66
2021/06/29 01:07:47;;;;;;;7.53;4.20;;;;;;;;;;5031944;28;20702;-66
2021/06/29 01:10:12;;;;;;;5.22;4.45;;;;;;;;;;5036482;28;20036;-66
2021/06/29 01:12:38;;;;;;;6.05;4.35;;;;;;;;;;5031701;28;20548;-67
2021/06/29 01:15:04;;;;;;;5.40;4.03;;;;;;;;;;5043719;28;20112;-67
2021/06/29 01:17:29;;;;;;;5.65;4.50;;;;;;;;;;5043380;28;20740;-67
2021/06/29 01:19:55;;;;;;;5.47;4.60;;;;;;;;;;5040948;28;20083;-67
2021/06/29 01:22:22;;;;;;;5.60;4.60;;;;;;;;;;5035775;28;20023;-66
2021/06/29 01:24:52;;;;;;;6.88;4.30;;;;;;;;;;5030802;28;20022;-67
2021/06/29 01:32:20;;;;;;;5.53;4.28;;;;;;;;;;5040190;28;20029;-67
2021/06/29 01:34:46;;;;;;;5.75;3.63;;;;;;;;;;5033793;28;20017;-66
2021/06/29 01:37:11;;;;;;;6.50;4.57;;;;;;;;;;5034078;28;20144;-67
2021/06/29 01:39:36;;;;;;;7.32;4.28;;;;;;;;;;5042765;28;20320;-67
2021/06/29 01:42:02;;;;;;;6.18;4.25;;;;;;;;;;5036570;28;20131;-66
2021/06/29 01:44:31;;;;;;;5.80;4.93;;;;;;;;;;5037075;28;20116;-67
2021/06/29 01:46:56;;;;;;;5.95;4.43;;;;;;;;;;5031280;28;20129;-66
2021/06/29 01:49:25;;;;;;;5.85;4.38;;;;;;;;;;5022899;28;20610;-66
2021/06/29 01:51:51;;;;;;;5.17;3.93;;;;;;;;;;5040809;28;20591;-66
2021/06/29 01:54:16;;;;;;;5.68;4.55;;;;;;;;;;5033853;28;20024;-66
2021/06/29 01:56:41;;;;;;;7.20;4.72;;;;;;;;;;5042533;28;20025;-67
2021/06/29 01:59:08;;;;;;;6.78;5.22;;;;;;;;;;5032491;28;20366;-67
2021/06/29 02:01:33;;;;;;;6.63;4.63;;;;;;;;;;5035254;28;20388;-67
2021/06/29 02:03:58;;;;;;;5.35;4.60;;;;;;;;;;5043986;28;20021;-67
2021/06/29 02:06:23;;;;;;;5.47;4.03;;;;;;;;;;5041691;28;20025;-68
2021/06/29 02:08:49;;;;;;;7.93;5.35;;;;;;;;;;5042603;28;20314;-66
2021/06/29 02:11:14;;;;;;;5.68;4.32;;;;;;;;;;5030540;28;20044;-66
2021/06/29 02:13:39;;;;;;;5.13;4.57;;;;;;;;;;5035664;28;20706;-67
2021/06/29 02:16:04;;;;;;;6.43;5.32;;;;;;;;;;5039464;28;20067;-67
2021/06/29 02:18:30;;;;;;;7.18;4.53;;;;;;;;;;5049035;28;20063;-66
2021/06/29 02:20:55;;;;;;;5.05;4.15;;;;;;;;;;5030311;28;20532;-67
2021/06/29 02:23:20;;;;;;;6.07;4.82;;;;;;;;;;5046286;28;20093;-67
2021/06/29 02:25:46;;;;;;;6.88;4.60;;;;;;;;;;5029607;28;20104;-67
2021/06/29 02:28:11;;;;;;;6.28;4.60;;;;;;;;;;5040743;28;20547;-67
2021/06/29 02:30:36;;;;;;;5.57;4.28;;;;;;;;;;5044762;28;20056;-66
2021/06/29 02:33:01;;;;;;;5.28;4.60;;;;;;;;;;5030970;28;20027;-66
2021/06/29 02:35:27;;;;;;;6.60;4.70;;;;;;;;;;5040283;28;20052;-67
2021/06/29 02:37:52;;;;;;;5.68;4.90;;;;;;;;;;5039416;28;20136;-67
2021/06/29 02:40:17;;;;;;;8.20;4.13;;;;;;;;;;5023900;28;20029;-66
2021/06/29 02:42:43;;;;;;;6.90;4.50;;;;;;;;;;5029997;28;20469;-67
2021/06/29 02:45:08;;;;;;;5.25;4.55;;;;;;;;;;5032367;28;20029;-67
2021/06/29 02:47:35;;;;;;;7.28;4.47;;;;;;;;;;5035235;28;20295;-67
2021/06/29 02:50:00;;;;;;;6.30;4.25;;;;;;;;;;5035151;28;20047;-67
2021/06/29 02:52:26;;;;;;;5.55;4.85;;;;;;;;;;5041615;28;20033;-66
2021/06/29 02:54:51;;;;;;;5.15;4.63;;;;;;;;;;5047794;28;20108;-67
2021/06/29 02:57:16;;;;;;;6.50;4.65;;;;;;;;;;5040312;28;20067;-66
2021/06/29 02:59:41;;;;;;;7.00;5.20;;;;;;;;;;5032868;28;20495;-67
2021/06/29 03:02:06;;;;;;;7.30;4.70;;;;;;;;;;5029573;28;20359;-67
2021/06/29 03:04:31;;;;;;;5.95;4.68;;;;;;;;;;5039131;28;20275;-67
2021/06/29 03:06:57;;;;;;;6.90;5.10;;;;;;;;;;5045874;28;20065;-67
2021/06/29 03:09:22;;;;;;;4.88;4.32;;;;;;;;;;5047210;28;20025;-67
2021/06/29 03:11:47;;;;;;;5.05;4.22;;;;;;;;;;5029476;28;20043;-66
2021/06/29 03:14:12;;;;;;;4.97;4.47;;;;;;;;;;5029365;28;20408;-67
2021/06/29 03:16:37;;;;;;;7.35;4.90;;;;;;;;;;5043511;28;20025;-67
2021/06/29 03:19:03;;;;;;;5.25;4.28;;;;;;;;;;5033519;28;20029;-66
2021/06/29 03:21:28;;;;;;;4.82;4.30;;;;;;;;;;5030259;28;20093;-67
2021/06/29 03:23:53;;;;;;;5.82;4.15;;;;;;;;;;5035592;28;20040;-67
2021/06/29 03:26:18;;;;;;;5.93;4.85;;;;;;;;;;5031017;28;20029;-66
2021/06/29 03:28:43;;;;;;;8.73;5.00;;;;;;;;;;5029710;28;20033;-66
2021/06/29 03:31:09;;;;;;;8.15;5.10;;;;;;;;;;5035497;28;20022;-66
2021/06/29 03:33:34;;;;;;;4.85;4.20;;;;;;;;;;5040984;28;20033;-66
2021/06/29 03:35:59;;;;;;;6.82;4.72;;;;;;;;;;5044515;28;20465;-67
2021/06/29 03:38:25;;;;;;;5.53;4.70;;;;;;;;;;5037068;28;20021;-67
2021/06/29 03:40:50;;;;;;;4.88;4.25;;;;;;;;;;5035281;28;20052;-67
2021/06/29 03:43:15;;;;;;;5.10;4.07;;;;;;;;;;5031060;28;20537;-66
2021/06/29 03:45:41;;;;;;;5.80;4.10;;;;;;;;;;5037103;28;20629;-66
2021/06/29 03:48:06;;;;;;;4.95;4.43;;;;;;;;;;5034558;28;20033;-66
2021/06/29 03:50:31;;;;;;;5.38;4.40;;;;;;;;;;5036082;28;20413;-66
2021/06/29 03:52:56;;;;;;;5.78;4.10;;;;;;;;;;5032462;28;20424;-66
2021/06/29 03:55:22;;;;;;;6.17;4.47;;;;;;;;;;5035102;28;20897;-67
2021/06/29 03:57:47;;;;;;;5.88;4.05;;;;;;;;;;5028395;28;20360;-68
2021/06/29 04:00:13;;;;;;;7.10;4.18;;;;;;;;;;5027499;28;20112;-67
2021/06/29 04:02:38;;;;;;;5.90;4.40;;;;;;;;;;5037699;28;20149;-66
2021/06/29 04:05:07;;;;;;;6.70;4.38;;;;;;;;;;5029870;28;20457;-67
2021/06/29 04:07:32;;;;;;;7.47;4.55;;;;;;;;;;5035021;28;20051;-66
2021/06/29 04:09:58;;;;;;;5.55;4.30;;;;;;;;;;5034427;28;20021;-67
2021/06/29 04:12:23;;;;;;;4.93;4.43;;;;;;;;;;5032370;28;20493;-66
2021/06/29 04:14:48;;;;;;;5.75;4.47;;;;;;;;;;5034709;28;20067;-67
2021/06/29 04:17:13;;;;;;;5.18;4.15;;;;;;;;;;5031301;28;20021;-67
2021/06/29 04:19:40;;;;;;;5.32;4.35;;;;;;;;;;5030219;28;20014;-66
2021/06/29 04:22:05;;;;;;;5.13;4.35;;;;;;;;;;5034660;28;20152;-67
2021/06/29 04:24:30;;;;;;;6.43;4.55;;;;;;;;;;5028181;28;20521;-66
2021/06/29 04:26:56;;;;;;;6.82;4.72;;;;;;;;;;5028080;28;20037;-67
2021/06/29 04:29:22;;;;;;;4.82;4.32;;;;;;;;;;5029409;28;20498;-67
2021/06/29 04:31:47;;;;;;;4.85;4.35;;;;;;;;;;5033299;28;20056;-66
2021/06/29 04:34:12;;;;;;;5.50;4.27;;;;;;;;;;5028819;28;20064;-66
2021/06/29 04:36:37;;;;;;;5.10;4.10;;;;;;;;;;5028760;28;20264;-66
2021/06/29 04:39:03;;;;;;;4.82;3.90;;;;;;;;;;5034722;28;20029;-67
2021/06/29 04:41:28;;;;;;;4.97;3.40;;;;;;;;;;5029632;28;20544;-67
2021/06/29 04:43:53;;;;;;;3.92;3.53;;;;;;;;;;5036887;28;20028;-67
2021/06/29 04:46:18;;;;;;;4.05;3.30;;;;;;;;;;5035548;28;20372;-67
2021/06/29 04:48:44;;;;;;;4.35;3.13;;;;;;;;;;5027950;28;20068;-67
2021/06/29 04:51:09;;;;;;;4.22;3.10;;;;;;;;;;5035245;28;20036;-67
2021/06/29 04:53:34;;;;;;;3.55;2.97;;;;;;;;;;5040422;28;20025;-63
2021/06/29 04:55:59;;;;;;;4.10;3.15;;;;;;;;;;5039489;28;20044;-64
2021/06/29 04:58:24;;;;;;;5.45;3.10;;;;;;;;;;5030163;28;20452;-64
2021/06/29 05:00:50;;;;;;;4.82;3.30;;;;;;;;;;5026947;28;20037;-64
2021/06/29 05:03:16;;;;;;;5.00;3.20;;;;;;;;;;5039175;28;20021;-63
2021/06/29 05:05:41;;;;;;;4.95;2.90;;;;;;;;;;5043693;28;20076;-64
2021/06/29 05:08:07;;;;;;;5.63;3.20;;;;;;;;;;5027219;28;20095;-64
2021/06/29 05:10:32;;;;;;;3.90;3.03;;;;;;;;;;5031763;28;20036;-64
2021/06/29 05:12:57;;;;;;;4.60;3.20;;;;;;;;;;5032975;28;20025;-64
2021/06/29 05:15:23;;;;;;;5.78;3.10;;;;;;;;;;5031884;28;20029;-63
2021/06/29 05:17:48;;;;;;;4.65;3.35;;;;;;;;;;5027084;28;20021;-64
2021/06/29 05:20:13;;;;;;;5.80;3.33;;;;;;;;;;5032058;28;20017;-64
2021/06/29 05:22:39;;;;;;;4.22;3.30;;;;;;;;;;5026643;28;20025;-64
2021/06/29 05:25:04;;;;;;;3.85;3.10;;;;;;;;;;5026097;28;20013;-64
2021/06/29 05:27:30;;;;;;;6.45;3.35;;;;;;;;;;5032915;28;20029;-64
2021/06/29 05:29:55;;;;;;;3.60;2.78;;;;;;;;;;5040598;28;20036;-65
2021/06/29 05:32:21;;;;;;;4.13;2.75;;;;;;;;;;5037301;28;20025;-64
2021/06/29 05:34:46;;;;;;;3.25;2.78;;;;;;;;;;5029435;28;20021;-65
2021/06/29 05:37:11;;;;;;;4.10;2.97;;;;;;;;;;5033015;28;20571;-65
2021/06/29 05:39:36;;;;;;;3.22;2.60;;;;;;;;;;5030045;28;20292;-63
2021/06/29 05:42:01;;;;;;;3.33;2.63;;;;;;;;;;5043510;28;20462;-64
2021/06/29 05:44:27;;;;;;;6.43;3.08;;;;;;;;;;5047967;28;20030;-63
2021/06/29 05:46:53;;;;;;;5.57;2.97;;;;;;;;;;5039988;28;21177;-64
2021/06/29 05:49:18;;;;;;;5.47;2.88;;;;;;;;;;5035842;28;20059;-65
2021/06/29 05:51:45;;;;;;;4.32;3.10;;;;;;;;;;5032995;28;20067;-64
2021/06/29 05:54:10;;;;;;;5.18;3.10;;;;;;;;;;5031705;28;20025;-64
2021/06/29 05:56:36;;;;;;;3.75;3.35;;;;;;;;;;5037783;28;20499;-64
2021/06/29 05:59:01;;;;;;;3.58;2.95;;;;;;;;;;5036298;28;20034;-64
2021/06/29 06:01:26;;;;;;;5.13;3.70;;;;;;;;;;5033899;28;20060;-64
2021/06/29 06:03:51;;;;;;;4.88;3.22;;;;;;;;;;5030585;28;20104;-64
2021/06/29 06:06:16;;;;;;;5.37;3.53;;;;;;;;;;5035875;28;20025;-64
2021/06/29 06:08:42;;;;;;;4.20;3.00;;;;;;;;;;5040444;28;20294;-64
2021/06/29 06:11:07;;;;;;;5.80;3.55;;;;;;;;;;5039065;28;20018;-64
2021/06/29 06:13:32;;;;;;;5.53;3.20;;;;;;;;;;5034578;28;20022;-63
2021/06/29 06:15:58;;;;;;;4.63;3.25;;;;;;;;;;5047799;28;20049;-64
2021/06/29 06:18:23;;;;;;;4.80;3.30;;;;;;;;;;5032498;28;20120;-63
2021/06/29 06:20:51;;;;;;;4.13;2.97;;;;;;;;;;5047928;28;20108;-64
2021/06/29 06:23:16;;;;;;;5.32;2.78;;;;;;;;;;5040163;28;20029;-65
2021/06/29 06:25:41;;;;;;;5.18;3.38;;;;;;;;;;5025905;28;20167;-64
2021/06/29 06:28:06;;;;;;;4.70;3.20;;;;;;;;;;5037914;28;20025;-64
2021/06/29 06:30:31;;;;;;;4.65;3.00;;;;;;;;;;5033156;28;20268;-64
2021/06/29 06:32:57;;;;;;;4.22;3.28;;;;;;;;;;5026186;28;20100;-64
2021/06/29 06:35:22;;;;;;;4.03;3.30;;;;;;;;;;5041236;28;20070;-64
2021/06/29 06:37:47;;;;;;;5.50;3.60;;;;;;;;;;5043985;28;20032;-64
2021/06/29 06:40:12;;;;;;;5.55;3.55;;;;;;;;;;5049028;28;20044;-64
2021/06/29 06:42:38;;;;;;;4.72;3.25;;;;;;;;;;5046883;28;20496;-63
2021/06/29 06:45:04;;;;;;;5.60;3.30;;;;;;;;;;5050398;28;20078;-64
2021/06/29 06:47:29;;;;;;;5.45;3.13;;;;;;;;;;5037503;28;20116;-63
2021/06/29 06:49:54;;;;;;;5.17;3.10;;;;;;;;;;5035954;28;20101;-64
2021/06/29 06:52:19;;;;;;;4.97;3.05;;;;;;;;;;5049440;28;20282;-63
2021/06/29 06:54:45;;;;;;;6.03;2.93;;;;;;;;;;5039176;28;20071;-64
2021/06/29 06:57:10;;;;;;;6.35;2.88;;;;;;;;;;5050552;28;20260;-64
2021/06/29 06:59:36;;;;;;;5.60;3.20;;;;;;;;;;5030568;28;20116;-63
2021/06/29 07:02:01;;;;;;;4.07;2.90;;;;;;;;;;5036392;28;20025;-64
2021/06/29 07:04:26;;;;;;;3.53;2.63;;;;;;;;;;5042784;28;20025;-64
2021/06/29 07:06:51;;;;;;;3.33;2.80;;;;;;;;;;5040884;28;20079;-63
2021/06/29 07:09:17;;;;;;;3.50;2.50;;;;;;;;;;5039947;28;20025;-63
2021/06/29 07:11:42;;;;;;;3.85;2.47;;;;;;;;;;5047437;28;20025;-63
2021/06/29 07:14:07;;;;;;;3.42;2.33;;;;;;;;;;5031106;28;20052;-64
2021/06/29 07:16:33;;;;;;;3.40;2.20;;;;;;;;;;5037033;28;20587;-63
2021/06/29 07:18:58;;;;;;;3.28;2.00;;;;;;;;;;5027927;28;20024;-64
2021/06/29 07:21:26;;;;;;;4.63;1.90;;;;;;;;;;5040656;28;20032;-64
2021/06/29 07:23:52;;;;;;;2.20;1.55;;;;;;;;;;5039416;28;20749;-64
2021/06/29 07:26:17;;;;;;;2.75;1.40;;;;;;;;;;5024896;28;20119;-63
2021/06/29 07:28:42;;;;;;;3.00;1.70;;;;;;;;;;5032495;28;20052;-64
2021/06/29 07:31:07;;;;;;;2.63;1.60;;;;;;;;;;5033238;28;20355;-63
2021/06/29 07:33:32;;;;;;;2.83;1.80;;;;;;;;;;5037067;28;20683;-63
2021/06/29 07:35:58;;;;;;;3.97;1.40;;;;;;;;;;5030567;28;20102;-63
2021/06/29 07:38:23;;;;;;;2.05;1.40;;;;;;;;;;5034463;28;20354;-63
2021/06/29 07:40:48;;;;;;;1.65;1.40;;;;;;;;;;5035727;28;20017;-64
2021/06/29 07:43:13;;;;;;;3.90;1.40;;;;;;;;;;5032916;28;20493;-63
2021/06/29 07:45:39;;;;;;;3.92;1.60;;;;;;;;;;5031677;28;20263;-63
2021/06/29 07:48:04;;;;;;;1.40;1.30;;;;;;;;;;5022783;28;20029;-62
2021/06/29 07:50:30;;;;;;;1.58;1.27;;;;;;;;;;5038344;28;20033;-63
2021/06/29 07:52:55;;;;;;;1.63;1.30;;;;;;;;;;5035132;28;20025;-63
2021/06/29 07:55:20;;;;;;;1.48;1.10;;;;;;;;;;5027514;28;20128;-62
2021/06/29 07:57:46;;;;;;;1.85;1.38;;;;;;;;;;5028564;28;20106;-63
2021/06/29 08:00:11;;;;;;;2.40;1.42;;;;;;;;;;5034551;28;20108;-64
2021/06/29 08:02:37;;;;;;;1.85;1.30;;;;;;;;;;5028650;28;20039;-63
2021/06/29 08:05:03;;;;;;;2.17;1.60;;;;;;;;;;5032312;28;20416;-63
2021/06/29 08:07:29;;;;;;;2.05;1.30;;;;;;;;;;5027690;28;20480;-62
2021/06/29 08:09:54;;;;;;;2.78;1.17;;;;;;;;;;5040477;28;20101;-64
2021/06/29 08:12:19;;;;;;;2.47;1.30;;;;;;;;;;5032287;28;20490;-62
2021/06/29 08:14:45;;;;;;;2.05;1.33;;;;;;;;;;5033958;28;20287;-64
2021/06/29 08:17:11;;;;;;;2.70;1.40;;;;;;;;;;5030609;28;20059;-66
2021/06/29 08:19:37;;;;;;;7.00;1.55;;;;;;;;;;5039778;28;20058;-64
2021/06/29 08:22:02;;;;;;;2.73;1.67;;;;;;;;;;5039387;28;20468;-63
2021/06/29 08:24:27;;;;;;;1.73;1.60;;;;;;;;;;5041701;28;20317;-62
2021/06/29 08:26:53;;;;;;;1.88;1.30;;;;;;;;;;5025348;28;20025;-62
2021/06/29 08:29:18;;;;;;;1.63;1.10;;;;;;;;;;5038112;28;20029;-63
2021/06/29 08:31:43;;;;;;;1.90;1.40;;;;;;;;;;5034443;28;20036;-63
2021/06/29 08:34:08;;;;;;;1.65;1.23;;;;;;;;;;5033554;28;20029;-62
2021/06/29 08:36:41;;;;;;;2.45;1.30;;;;;;;;;;5035740;28;20392;-63
2021/06/29 08:39:06;;;;;;;2.42;1.20;;;;;;;;;;5032444;28;20514;-62
2021/06/29 08:41:31;;;;;;;2.13;1.30;;;;;;;;;;5026916;28;20102;-62
2021/06/29 08:43:56;;;;;;;3.67;1.15;;;;;;;;;;5030506;28;20059;-63
2021/06/29 08:46:22;;;;;;;1.92;1.20;;;;;;;;;;5042001;28;20034;-62
2021/06/29 08:48:47;;;;;;;2.22;1.58;;;;;;;;;;5034182;28;20417;-62
2021/06/29 08:51:13;;;;;;;1.38;1.20;;;;;;;;;;5028619;28;20025;-62
2021/06/29 08:53:38;;;;;;;1.58;1.20;;;;;;;;;;5038540;28;20020;-63
2021/06/29 08:56:04;;;;;;;1.57;1.37;;;;;;;;;;5024511;28;20025;-63
2021/06/29 08:58:34;;;;;;;1.77;1.48;;;;;;;;;;5032084;28;20754;-63
2021/06/29 09:00:59;;;;;;;1.33;0.95;;;;;;;;;;5029470;28;20025;-63
2021/06/29 09:03:24;;;;;;;1.85;1.30;;;;;;;;;;5030868;28;20108;-63
2021/06/29 09:05:50;;;;;;;2.37;1.20;;;;;;;;;;5033761;28;20507;-63
2021/06/29 09:08:17;;;;;;;1.58;1.15;;;;;;;;;;5030943;28;20374;-62
2021/06/29 09:10:43;;;;;;;1.67;1.10;;;;;;;;;;5031992;28;20033;-62
2021/06/29 09:13:10;;;;;;;3.13;1.30;;;;;;;;;;5037969;28;20475;-64
2021/06/29 09:15:38;;;;;;;3.33;1.33;;;;;;;;;;5032740;28;20034;-63
2021/06/29 09:18:06;;;;;;;2.30;1.30;;;;;;;;;;5032698;28;20029;-63
2021/06/29 09:20:33;;;;;;;2.15;1.40;;;;;;;;;;5034856;28;20025;-63
2021/06/29 09:23:07;;;;;;;2.03;1.15;;;;;;;;;;5039716;28;20067;-63
2021/06/29 09:25:32;;;;;;;2.75;1.35;;;;;;;;;;5039686;28;20017;-65
2021/06/29 09:27:59;;;;;;;1.27;1.10;;;;;;;;;;5037084;28;20112;-64
2021/06/29 09:30:30;;;;;;;0.93;0.80;;;;;;;;;;5033287;28;20021;-63
2021/06/29 09:32:59;;;;;;;1.80;1.00;;;;;;;;;;5035868;28;20427;-63
2021/06/29 09:35:25;;;;;;;2.15;0.98;;;;;;;;;;5036590;28;20023;-62
2021/06/29 09:37:50;;;;;;;2.08;1.02;;;;;;;;;;5038618;28;20028;-63
2021/06/29 09:40:16;;;;;;;1.23;0.80;;;;;;;;;;5040211;28;20056;-62
2021/06/29 09:42:41;;;;;;;1.10;1.00;;;;;;;;;;5040345;28;20061;-63
2021/06/29 09:45:26;;;;;;;2.72;1.17;;;;;;;;;;5039242;28;20024;-62
2021/06/29 09:47:51;;;;;;;3.00;1.05;;;;;;;;;;5038598;28;20072;-62
2021/06/29 09:50:36;;;;;;;1.53;1.00;;;;;;;;;;5037612;28;20049;-63
2021/06/29 09:53:31;;;;;;;1.05;0.88;;;;;;;;;;5037856;28;20337;-63
2021/06/29 09:55:58;;;;;;;1.63;1.00;;;;;;;;;;5008218;28;20041;-63
2021/06/29 09:58:23;;;;;;;2.13;1.10;;;;;;;;;;5002483;28;20109;-63
2021/06/29 10:00:51;;;;;;;1.13;0.90;;;;;;;;;;5001426;28;20486;-62
2021/06/29 10:03:16;;;;;;;3.15;1.13;;;;;;;;;;4999267;28;20026;-63
2021/06/29 10:05:41;;;;;;;1.93;1.20;;;;;;;;;;4988819;28;20040;-62
2021/06/29 10:08:07;;;;;;;2.70;1.00;;;;;;;;;;5001086;28;20846;-63
2021/06/29 10:10:32;;;;;;;1.48;0.85;;;;;;;;;;5001940;28;20341;-63
2021/06/29 10:13:14;;;;;;;1.67;0.93;;;;;;;;;;5001103;28;20445;-63
2021/06/29 10:15:40;;;;;;;2.13;1.00;;;;;;;;;;5001909;28;20212;-63
2021/06/29 10:18:05;;;;;;;1.88;1.10;;;;;;;;;;4999038;28;20486;-62
2021/06/29 10:20:47;;;;;;;2.88;1.17;;;;;;;;;;5000787;28;20040;-64
2021/06/29 10:23:14;;;;;;;3.05;1.00;;;;;;;;;;4992272;28;20030;-63
2021/06/29 10:25:39;;;;;;;0.85;0.85;;;;;;;;;;4982539;28;20424;-62
2021/06/29 10:28:04;;;;;;;2.65;1.20;;;;;;;;;;4993167;28;20038;-63
2021/06/29 10:30:30;;;;;;;1.67;1.20;;;;;;;;;;4995849;28;20049;-63
2021/06/29 10:32:55;;;;;;;0.90;0.80;;;;;;;;;;5020567;28;20037;-63
2021/06/29 10:35:20;;;;;;;1.42;0.88;;;;;;;;;;5035022;28;20021;-64
2021/06/29 10:37:46;;;;;;;1.27;0.90;;;;;;;;;;5031582;28;20567;-65
2021/06/29 10:40:11;;;;;;;0.95;0.65;;;;;;;;;;5043575;28;20024;-66
2021/06/29 10:42:42;;;;;;;2.30;0.98;;;;;;;;;;5032681;28;20186;-64
2021/06/29 10:45:13;;;;;;;1.20;1.10;;;;;;;;;;5038149;28;20025;-64
2021/06/29 10:47:39;;;;;;;1.77;0.90;;;;;;;;;;5028975;28;20048;-64
2021/06/29 10:50:11;;;;;;;2.45;1.15;;;;;;;;;;5038912;28;20025;-64
2021/06/29 10:52:37;;;;;;;1.77;1.25;;;;;;;;;;5027396;28;20792;-64
2021/06/29 10:55:04;;;;;;;1.30;1.20;;;;;;;;;;5023018;28;20084;-64
2021/06/29 10:57:43;;;;;;;1.15;1.00;;;;;;;;;;5029764;28;20053;-65
2021/06/29 11:00:17;;;;;;;1.80;1.30;;;;;;;;;;5029397;28;20024;-65
2021/06/29 11:03:02;;;;;;;1.27;1.00;;;;;;;;;;5035861;28;20048;-63
2021/06/29 11:05:29;;;;;;;1.75;1.17;;;;;;;;;;5029087;28;20029;-65
2021/06/29 11:08:07;;;;;;;2.55;1.52;;;;;;;;;;5034993;28;20462;-63
2021/06/29 11:10:35;;;;;;;2.55;1.10;;;;;;;;;;5021211;28;20573;-64
2021/06/29 11:13:00;;;;;;;1.63;1.23;;;;;;;;;;5036167;28;20108;-64
2021/06/29 11:15:44;;;;;;;2.17;1.55;;;;;;;;;;5032629;28;20445;-64
2021/06/29 11:18:10;;;;;;;2.08;1.80;;;;;;;;;;5026763;28;20079;-64
2021/06/29 11:20:48;;;;;;;2.67;1.77;;;;;;;;;;5036635;28;20473;-64
2021/06/29 11:23:16;;;;;;;1.98;1.13;;;;;;;;;;5032816;28;20057;-65
2021/06/29 11:25:44;;;;;;;3.53;1.30;;;;;;;;;;5025413;28;20038;-65
2021/06/29 11:28:11;;;;;;;2.45;1.33;;;;;;;;;;5041472;28;20037;-65
2021/06/29 11:30:52;;;;;;;2.45;1.40;;;;;;;;;;5028047;28;20029;-64
2021/06/29 11:33:36;;;;;;;1.98;1.50;;;;;;;;;;5021111;28;20030;-64
2021/06/29 11:36:03;;;;;;;3.05;1.15;;;;;;;;;;5038532;28;20567;-65
2021/06/29 11:38:32;;;;;;;1.45;1.10;;;;;;;;;;5030201;28;20021;-65
2021/06/29 11:40:58;;;;;;;;;;;;;;;;;;5047602;28;20021;-65
2021/06/29 11:43:27;;;;;;;1.88;1.42;;;;;;;;;;5044355;28;19905;-65
2021/06/29 11:45:52;;;;;;;;;;;;;;;;;;5030490;28;20020;-63
2021/06/29 11:48:36;;;;;;;2.55;1.50;;;;;;;;;;5030194;28;19913;-64
2021/06/29 11:51:02;;;;;;;1.90;1.35;;;;;;;;;;5031008;28;20583;-65
2021/06/29 11:53:27;;;;;;;2.10;1.50;;;;;;;;;;5041531;28;20037;-64
2021/06/29 11:55:52;;;;;;;1.58;1.20;;;;;;;;;;5041222;28;20116;-65
2021/06/29 11:58:17;;;;;;;2.73;1.00;;;;;;;;;;5028960;28;20018;-64
2021/06/29 12:00:42;;;;;;;1.27;1.13;;;;;;;;;;5032386;28;20373;-65
2021/06/29 12:03:08;;;;;;;1.33;1.10;;;;;;;;;;5032687;28;20266;-65
2021/06/29 12:05:35;;;;;;;1.23;1.13;;;;;;;;;;5039842;28;20017;-65
2021/06/29 12:08:04;;;;;;;2.15;1.30;;;;;;;;;;5029673;28;20044;-66
2021/06/29 12:10:31;;;;;;;2.00;1.40;;;;;;;;;;5028007;28;20110;-64
2021/06/29 12:12:57;;;;;;;1.80;0.93;;;;;;;;;;5028878;28;20036;-64
2021/06/29 12:15:27;;;;;;;2.78;1.20;;;;;;;;;;5030309;28;20402;-64
2021/06/29 12:17:52;;;;;;;1.20;1.00;;;;;;;;;;5040225;28;20119;-64
2021/06/29 12:20:19;;;;;;;1.93;1.50;;;;;;;;;;5031390;28;20014;-65
2021/06/29 12:22:45;;;;;;;1.30;1.17;;;;;;;;;;5026341;28;20378;-65
2021/06/29 12:25:16;;;;;;;2.78;1.48;;;;;;;;;;5022333;28;20441;-65
2021/06/29 12:27:43;;;;;;;3.03;1.30;;;;;;;;;;5029229;28;20033;-67
2021/06/29 12:30:19;;;;;;;1.38;1.20;;;;;;;;;;5029800;28;20373;-65
2021/06/29 12:32:44;;;;;;;4.60;1.38;;;;;;;;;;5030314;28;20045;-66
2021/06/29 12:35:10;;;;;;;4.63;1.20;;;;;;;;;;5029642;28;20381;-65
2021/06/29 12:37:51;;;;;;;2.83;1.30;;;;;;;;;;5037460;28;20024;-67
2021/06/29 12:40:16;;;;;;;2.75;1.30;;;;;;;;;;5032868;28;20369;-65
2021/06/29 12:42:41;;;;;;;2.78;2.00;;;;;;;;;;5028708;28;20045;-67
2021/06/29 12:45:10;;;;;;;2.10;1.30;;;;;;;;;;5031005;28;20022;-65
2021/06/29 12:47:35;;;;;;;1.75;1.10;;;;;;;;;;5048457;28;20323;-65
2021/06/29 12:50:00;;;;;;;3.63;1.43;;;;;;;;;;5043468;28;20448;-65
2021/06/29 12:52:26;;;;;;;1.60;1.30;;;;;;;;;;5033554;28;20119;-64
2021/06/29 12:55:01;;;;;;;2.08;1.40;;;;;;;;;;5028358;28;20343;-64
2021/06/29 12:57:26;;;;;;;2.03;1.70;;;;;;;;;;5027144;28;20022;-65
2021/06/29 12:59:52;;;;;;;1.80;1.40;;;;;;;;;;5040384;28;20131;-64
2021/06/29 13:02:20;;;;;;;2.55;1.45;;;;;;;;;;5029619;28;20287;-66
2021/06/29 13:04:47;;;;;;;2.72;1.63;;;;;;;;;;5036547;28;20369;-65
2021/06/29 13:07:13;;;;;;;2.85;1.50;;;;;;;;;;5041467;28;20021;-64
2021/06/29 13:09:41;;;;;;;4.10;1.70;;;;;;;;;;5047349;28;20032;-65
2021/06/29 13:12:13;;;;;;;2.58;1.90;;;;;;;;;;5025382;28;20470;-64
2021/06/29 13:14:38;;;;;;;2.30;1.70;;;;;;;;;;5032812;28;20063;-65
2021/06/29 13:17:13;;;;;;;2.63;1.50;;;;;;;;;;5048471;28;20766;-63
2021/06/29 13:19:38;;;;;;;2.40;1.80;;;;;;;;;;5047968;28;20032;-63
2021/06/29 13:22:07;;;;;;;5.00;1.70;;;;;;;;;;5029648;28;20021;-64
2021/06/29 13:24:40;;;;;;;3.40;1.50;;;;;;;;;;5026037;28;20284;-65
2021/06/29 13:27:06;;;;;;;3.10;1.60;;;;;;;;;;5028642;28;20377;-64
2021/06/29 13:29:34;;;;;;;2.20;1.50;;;;;;;;;;5029449;28;20025;-64
2021/06/29 13:32:01;;;;;;;3.50;1.48;;;;;;;;;;5030050;28;20104;-64
2021/06/29 13:34:28;;;;;;;2.08;1.77;;;;;;;;;;5031497;28;20029;-65
2021/06/29 13:36:53;;;;;;;1.98;1.50;;;;;;;;;;5033294;28;20033;-64
2021/06/29 13:39:29;;;;;;;2.40;1.60;;;;;;;;;;5041387;28;20314;-64
2021/06/29 13:41:55;;;;;;;2.50;1.60;;;;;;;;;;5033722;28;20106;-64
2021/06/29 13:44:20;;;;;;;2.80;1.50;;;;;;;;;;5046291;28;20017;-63
2021/06/29 13:46:46;;;;;;;3.75;1.70;;;;;;;;;;5029630;28;20382;-65
2021/06/29 13:49:14;;;;;;;2.75;1.60;;;;;;;;;;5034841;28;20037;-65
2021/06/29 13:51:39;;;;;;;3.60;1.98;;;;;;;;;;5032598;28;20026;-65
2021/06/29 13:54:18;;;;;;;2.13;1.80;;;;;;;;;;5033995;28;20022;-65
2021/06/29 13:56:43;;;;;;;4.25;2.10;;;;;;;;;;5025801;28;20056;-64
2021/06/29 13:59:08;;;;;;;3.35;2.00;;;;;;;;;;5031950;28;20053;-67
2021/06/29 14:01:34;;;;;;;4.78;2.15;;;;;;;;;;5045399;28;20033;-65
2021/06/29 14:04:00;;;;;;;3.13;1.83;;;;;;;;;;5049060;28;20902;-64
2021/06/29 14:06:26;;;;;;;4.30;2.10;;;;;;;;;;5036092;28;20051;-63
2021/06/29 14:09:04;;;;;;;4.03;2.20;;;;;;;;;;5036924;28;20037;-63
2021/06/29 14:11:33;;;;;;;2.88;2.00;;;;;;;;;;5026715;28;20770;-64
2021/06/29 14:13:58;;;;;;;3.35;1.95;;;;;;;;;;5030995;28;20021;-63
2021/06/29 14:16:25;;;;;;;3.10;1.93;;;;;;;;;;5020716;28;20029;-64
2021/06/29 14:18:50;;;;;;;3.55;2.03;;;;;;;;;;5032884;28;20329;-63
2021/06/29 14:21:22;;;;;;;2.60;1.63;;;;;;;;;;5034858;28;20009;-63
2021/06/29 14:23:49;;;;;;;2.72;2.13;;;;;;;;;;5031866;28;20087;-63
2021/06/29 14:26:15;;;;;;;2.75;1.63;;;;;;;;;;5033505;28;20036;-63
2021/06/29 14:28:40;;;;;;;2.22;1.50;;;;;;;;;;5033576;28;20033;-64
2021/06/29 14:31:06;;;;;;;2.50;1.73;;;;;;;;;;5031316;28;20503;-63
2021/06/29 14:33:31;;;;;;;3.25;1.70;;;;;;;;;;5031171;28;20021;-64
2021/06/29 14:35:59;;;;;;;3.33;1.60;;;;;;;;;;5030919;28;20021;-64
2021/06/29 14:38:24;;;;;;;2.38;1.73;;;;;;;;;;5027709;28;20033;-64
2021/06/29 14:40:50;;;;;;;5.85;1.98;;;;;;;;;;5032244;28;20040;-65
2021/06/29 14:43:15;;;;;;;3.80;1.80;;;;;;;;;;5033244;28;20103;-64
2021/06/29 14:45:41;;;;;;;2.25;1.70;;;;;;;;;;5026316;28;20116;-63